Time,TemperatureF,DewpointF,PressureIn,WindDirection,WindDirectionDegrees,WindSpeedMPH,WindSpeedGustMPH,Humidity,HourlyPrecipIn,Conditions,Clouds,dailyrainin,SoftwareType,DateUTC
2014-02-01 00:00:00,55.8,31.2,29.99,WNW,298,7.0,16.0,39,0.00,,---,0.00,VWS V14.01,2014-02-01 08:00:00,
2014-02-01 00:26:00,56.7,30.1,29.98,WNW,299,9.0,19.0,36,0.00,,---,0.00,VWS V14.01,2014-02-01 08:26:00,
2014-02-01 00:30:00,56.7,30.1,29.98,WNW,299,9.0,19.0,36,0.00,,---,0.00,VWS V14.01,2014-02-01 08:30:00,
2014-02-01 00:56:00,55.8,31.2,29.99,WNW,298,7.0,16.0,39,0.00,,---,0.00,VWS V14.01,2014-02-01 08:56:00,
2014-02-01 01:00:00,55.8,31.2,29.99,WNW,298,7.0,16.0,39,0.00,,---,0.00,VWS V14.01,2014-02-01 09:00:00,
2014-02-01 01:26:00,54.6,32.6,29.99,WNW,300,6.0,12.0,43,0.00,,---,0.00,VWS V14.01,2014-02-01 09:26:00,
2014-02-01 01:30:00,54.6,32.6,29.99,WNW,300,6.0,12.0,43,0.00,,---,0.00,VWS V14.01,2014-02-01 09:30:00,
2014-02-01 01:56:00,53.9,33.6,29.99,WNW,287,1.0,9.0,46,0.00,,---,0.00,VWS V14.01,2014-02-01 09:56:00,
2014-02-01 02:00:00,53.9,33.6,29.99,WNW,287,1.0,9.0,46,0.00,,---,0.00,VWS V14.01,2014-02-01 10:00:00,
2014-02-01 02:26:00,52.7,33.6,29.99,WNW,294,7.0,9.0,48,0.00,,---,0.00,VWS V14.01,2014-02-01 10:26:00,
2014-02-01 02:30:00,52.7,33.6,29.99,WNW,294,7.0,9.0,48,0.00,,---,0.00,VWS V14.01,2014-02-01 10:30:00,
2014-02-01 02:56:00,52.2,33.6,29.99,WNW,298,4.0,9.0,49,0.00,,---,0.00,VWS V14.01,2014-02-01 10:56:00,
2014-02-01 03:00:00,52.2,33.6,29.99,WNW,298,4.0,9.0,49,0.00,,---,0.00,VWS V14.01,2014-02-01 11:00:00,
2014-02-01 03:26:00,51.1,34.1,29.99,WNW,299,2.0,5.0,52,0.00,,---,0.00,VWS V14.01,2014-02-01 11:26:00,
2014-02-01 03:30:00,51.1,34.1,29.99,WNW,299,2.0,5.0,52,0.00,,---,0.00,VWS V14.01,2014-02-01 11:30:00,
2014-02-01 03:56:00,49.3,33.8,29.99,WNW,300,1.0,6.0,55,0.00,,---,0.00,VWS V14.01,2014-02-01 11:56:00,
2014-02-01 04:00:00,49.3,33.8,29.99,WNW,300,1.0,6.0,55,0.00,,---,0.00,VWS V14.01,2014-02-01 12:00:00,
2014-02-01 04:26:00,47.3,34.5,30.00,WNW,298,0.0,5.0,61,0.00,,---,0.00,VWS V14.01,2014-02-01 12:26:00,
2014-02-01 04:30:00,47.3,34.5,30.00,WNW,298,0.0,5.0,61,0.00,,---,0.00,VWS V14.01,2014-02-01 12:30:00,
2014-02-01 04:56:00,45.8,35.5,30.01,WNW,302,0.0,3.0,67,0.00,,---,0.00,VWS V14.01,2014-02-01 12:56:00,
2014-02-01 05:00:00,45.8,35.5,30.01,WNW,302,0.0,3.0,67,0.00,,---,0.00,VWS V14.01,2014-02-01 13:00:00,
2014-02-01 05:26:00,44.2,35.4,30.02,WNW,300,0.0,1.0,71,0.00,,---,0.00,VWS V14.01,2014-02-01 13:26:00,
2014-02-01 05:30:00,44.2,35.4,30.02,WNW,300,0.0,1.0,71,0.00,,---,0.00,VWS V14.01,2014-02-01 13:30:00,
2014-02-01 05:56:00,43.1,35.0,30.03,WNW,301,0.0,4.0,73,0.00,,---,0.00,VWS V14.01,2014-02-01 13:56:00,
2014-02-01 06:00:00,43.1,35.0,30.03,WNW,301,0.0,4.0,73,0.00,,---,0.00,VWS V14.01,2014-02-01 14:00:00,
2014-02-01 06:26:00,42.1,35.4,30.04,WNW,302,0.0,2.0,77,0.00,,---,0.00,VWS V14.01,2014-02-01 14:26:00,
2014-02-01 06:30:00,42.1,35.4,30.04,WNW,302,0.0,2.0,77,0.00,,---,0.00,VWS V14.01,2014-02-01 14:30:00,
2014-02-01 06:56:00,41.7,36.0,30.05,WNW,300,0.0,3.0,80,0.00,,---,0.00,VWS V14.01,2014-02-01 14:56:00,
2014-02-01 07:00:00,41.7,36.0,30.05,WNW,300,0.0,3.0,80,0.00,,---,0.00,VWS V14.01,2014-02-01 15:00:00,
2014-02-01 07:26:00,42.1,37.0,30.06,WNW,300,0.0,1.0,82,0.00,,---,0.00,VWS V14.01,2014-02-01 15:26:00,
2014-02-01 07:30:00,42.1,37.0,30.06,WNW,300,0.0,1.0,82,0.00,,---,0.00,VWS V14.01,2014-02-01 15:30:00,
2014-02-01 07:56:00,46.4,40.2,30.07,WNW,300,0.0,2.0,79,0.00,,---,0.00,VWS V14.01,2014-02-01 15:56:00,
2014-02-01 08:00:00,46.4,40.2,30.07,WNW,300,0.0,2.0,79,0.00,,---,0.00,VWS V14.01,2014-02-01 16:00:00,
2014-02-01 08:26:00,50.5,41.1,30.07,WNW,298,0.0,4.0,70,0.00,,---,0.00,VWS V14.01,2014-02-01 16:26:00,
2014-02-01 08:30:00,50.5,41.1,30.07,WNW,298,0.0,4.0,70,0.00,,---,0.00,VWS V14.01,2014-02-01 16:30:00,
2014-02-01 08:56:00,57.7,41.7,30.08,WNW,300,1.0,3.0,55,0.00,,---,0.00,VWS V14.01,2014-02-01 16:56:00,
2014-02-01 09:00:00,57.7,41.7,30.08,WNW,300,1.0,3.0,55,0.00,,---,0.00,VWS V14.01,2014-02-01 17:00:00,
2014-02-01 09:26:00,61.3,38.6,30.09,NW,324,0.0,5.0,43,0.00,,---,0.00,VWS V14.01,2014-02-01 17:26:00,
2014-02-01 09:30:00,61.3,38.6,30.09,NW,324,0.0,5.0,43,0.00,,---,0.00,VWS V14.01,2014-02-01 17:30:00,
2014-02-01 09:56:00,63.2,37.9,30.09,West,277,3.0,6.0,39,0.00,,---,0.00,VWS V14.01,2014-02-01 17:56:00,
2014-02-01 10:00:00,63.2,37.9,30.09,West,277,3.0,6.0,39,0.00,,---,0.00,VWS V14.01,2014-02-01 18:00:00,
2014-02-01 10:26:00,64.7,35.7,30.09,North,357,2.0,6.0,34,0.00,,---,0.00,VWS V14.01,2014-02-01 18:26:00,
2014-02-01 10:30:00,64.7,35.7,30.09,North,357,2.0,6.0,34,0.00,,---,0.00,VWS V14.01,2014-02-01 18:30:00,
2014-02-01 10:56:00,67.6,35.1,30.09,NNW,340,0.0,6.0,30,0.00,,---,0.00,VWS V14.01,2014-02-01 18:56:00,
2014-02-01 11:00:00,67.6,35.1,30.09,NNW,340,0.0,6.0,30,0.00,,---,0.00,VWS V14.01,2014-02-01 19:00:00,
2014-02-01 11:26:00,66.2,34.7,30.08,SW,229,3.0,8.0,31,0.00,,---,0.00,VWS V14.01,2014-02-01 19:26:00,
2014-02-01 11:30:00,66.2,34.7,30.08,SW,229,3.0,8.0,31,0.00,,---,0.00,VWS V14.01,2014-02-01 19:30:00,
2014-02-01 11:56:00,67.2,35.6,30.07,SW,215,4.0,9.0,31,0.00,,---,0.00,VWS V14.01,2014-02-01 19:56:00,
2014-02-01 12:00:00,67.2,35.6,30.07,SW,215,4.0,9.0,31,0.00,,---,0.00,VWS V14.01,2014-02-01 20:00:00,
2014-02-01 12:26:00,65.5,34.9,30.05,SSW,210,6.0,11.0,32,0.00,,---,0.00,VWS V14.01,2014-02-01 20:26:00,
2014-02-01 12:30:00,65.5,34.9,30.05,SSW,210,6.0,11.0,32,0.00,,---,0.00,VWS V14.01,2014-02-01 20:30:00,
2014-02-01 12:56:00,65.6,36.5,30.04,South,188,11.0,13.0,34,0.00,,---,0.00,VWS V14.01,2014-02-01 20:56:00,
2014-02-01 13:00:00,65.6,36.5,30.04,South,188,11.0,13.0,34,0.00,,---,0.00,VWS V14.01,2014-02-01 21:00:00,
2014-02-01 13:26:00,63.8,34.9,30.03,SSE,160,4.0,13.0,34,0.00,,---,0.00,VWS V14.01,2014-02-01 21:26:00,
2014-02-01 13:30:00,63.8,34.9,30.03,SSE,160,4.0,13.0,34,0.00,,---,0.00,VWS V14.01,2014-02-01 21:30:00,
2014-02-01 13:56:00,64.4,35.5,30.03,South,181,8.0,13.0,34,0.00,,---,0.00,VWS V14.01,2014-02-01 21:56:00,
2014-02-01 14:00:00,64.4,35.5,30.03,South,181,8.0,13.0,34,0.00,,---,0.00,VWS V14.01,2014-02-01 22:00:00,
2014-02-01 14:26:00,63.7,35.6,30.03,South,179,6.0,15.0,35,0.00,,---,0.00,VWS V14.01,2014-02-01 22:26:00,
2014-02-01 14:30:00,63.7,35.6,30.03,South,179,6.0,15.0,35,0.00,,---,0.00,VWS V14.01,2014-02-01 22:30:00,
2014-02-01 15:00:00,63.3,39.2,30.03,SSW,201,6.0,13.0,41,0.00,,---,0.00,VWS V14.01,2014-02-01 23:00:00,
2014-02-01 15:26:00,63.1,39.7,30.03,South,184,7.0,16.0,42,0.00,,---,0.00,VWS V14.01,2014-02-01 23:26:00,
2014-02-01 15:30:00,63.1,39.7,30.03,South,184,7.0,16.0,42,0.00,,---,0.00,VWS V14.01,2014-02-01 23:30:00,
2014-02-01 15:56:00,63.3,39.2,30.03,SSW,201,6.0,13.0,41,0.00,,---,0.00,VWS V14.01,2014-02-01 23:56:00,
2014-02-01 16:00:00,63.3,39.2,30.03,SSW,201,6.0,13.0,41,0.00,,---,0.00,VWS V14.01,2014-02-02 00:00:00,
2014-02-01 16:26:00,62.9,43.5,30.03,SSW,207,3.0,15.0,49,0.00,,---,0.00,VWS V14.01,2014-02-02 00:26:00,
2014-02-01 16:30:00,62.9,43.5,30.03,SSW,207,3.0,15.0,49,0.00,,---,0.00,VWS V14.01,2014-02-02 00:30:00,
2014-02-01 16:56:00,62.7,39.3,30.03,SSW,208,4.0,14.0,42,0.00,,---,0.00,VWS V14.01,2014-02-02 00:56:00,
2014-02-01 17:00:00,62.7,39.3,30.03,SSW,208,4.0,14.0,42,0.00,,---,0.00,VWS V14.01,2014-02-02 01:00:00,
2014-02-01 17:26:00,60.2,40.5,30.05,West,280,9.0,16.0,48,0.00,,---,0.00,VWS V14.01,2014-02-02 01:26:00,
2014-02-01 17:30:00,60.2,40.5,30.05,West,280,9.0,16.0,48,0.00,,---,0.00,VWS V14.01,2014-02-02 01:30:00,
2014-02-01 17:56:00,59.0,41.4,30.06,WSW,248,8.0,17.0,52,0.00,,---,0.00,VWS V14.01,2014-02-02 01:56:00,
2014-02-01 18:00:00,59.0,41.4,30.06,WSW,248,8.0,17.0,52,0.00,,---,0.00,VWS V14.01,2014-02-02 02:00:00,
2014-02-01 18:26:00,58.3,42.2,30.06,SW,231,4.0,14.0,55,0.00,,---,0.00,VWS V14.01,2014-02-02 02:26:00,
2014-02-01 18:30:00,58.3,42.2,30.06,SW,231,4.0,14.0,55,0.00,,---,0.00,VWS V14.01,2014-02-02 02:30:00,
2014-02-01 18:56:00,58.0,41.9,30.06,WSW,256,8.0,14.0,55,0.00,,---,0.00,VWS V14.01,2014-02-02 02:56:00,
2014-02-01 19:00:00,58.0,41.9,30.06,WSW,256,8.0,14.0,55,0.00,,---,0.00,VWS V14.01,2014-02-02 03:00:00,
2014-02-01 19:26:00,58.1,39.6,30.06,WSW,250,5.0,20.0,50,0.00,,---,0.00,VWS V14.01,2014-02-02 03:26:00,
2014-02-01 19:30:00,58.1,39.6,30.06,WSW,250,5.0,20.0,50,0.00,,---,0.00,VWS V14.01,2014-02-02 03:30:00,
2014-02-01 19:56:00,57.7,41.7,30.06,WSW,242,5.0,10.0,55,0.00,,---,0.00,VWS V14.01,2014-02-02 03:56:00,
2014-02-01 20:00:00,57.7,41.7,30.06,WSW,242,5.0,10.0,55,0.00,,---,0.00,VWS V14.01,2014-02-02 04:00:00,
2014-02-01 20:26:00,57.0,42.8,30.07,West,280,4.0,14.0,59,0.00,,---,0.00,VWS V14.01,2014-02-02 04:26:00,
2014-02-01 20:30:00,57.0,42.8,30.07,West,280,4.0,14.0,59,0.00,,---,0.00,VWS V14.01,2014-02-02 04:30:00,
2014-02-01 20:56:00,55.0,40.1,30.08,WNW,290,6.0,6.0,57,0.00,,---,0.00,VWS V14.01,2014-02-02 04:56:00,
2014-02-01 21:00:00,55.0,40.1,30.08,WNW,290,6.0,6.0,57,0.00,,---,0.00,VWS V14.01,2014-02-02 05:00:00,
2014-02-01 21:26:00,53.0,39.1,30.09,NNE,33,0.0,6.0,59,0.00,,---,0.00,VWS V14.01,2014-02-02 05:26:00,
2014-02-01 21:30:00,53.0,39.1,30.09,NNE,33,0.0,6.0,59,0.00,,---,0.00,VWS V14.01,2014-02-02 05:30:00,
2014-02-01 21:56:00,50.7,39.0,30.09,North,10,0.0,4.0,64,0.00,,---,0.00,VWS V14.01,2014-02-02 05:56:00,
2014-02-01 22:00:00,50.7,39.0,30.09,North,10,0.0,4.0,64,0.00,,---,0.00,VWS V14.01,2014-02-02 06:00:00,
2014-02-01 22:26:00,49.3,38.8,30.09,North,5,2.0,3.0,67,0.00,,---,0.00,VWS V14.01,2014-02-02 06:26:00,
2014-02-01 22:30:00,49.3,38.8,30.09,North,5,2.0,3.0,67,0.00,,---,0.00,VWS V14.01,2014-02-02 06:30:00,
2014-02-01 22:56:00,48.1,37.7,30.09,North,5,0.0,3.0,67,0.00,,---,0.00,VWS V14.01,2014-02-02 06:56:00,
2014-02-01 23:00:00,48.1,37.7,30.09,North,5,0.0,3.0,67,0.00,,---,0.00,VWS V14.01,2014-02-02 07:00:00,
2014-02-01 23:26:00,46.7,37.5,30.08,North,1,0.0,3.0,70,0.00,,---,0.00,VWS V14.01,2014-02-02 07:26:00,
2014-02-01 23:30:00,46.7,37.5,30.08,North,1,0.0,3.0,70,0.00,,---,0.00,VWS V14.01,2014-02-02 07:30:00,
2014-02-01 23:56:00,45.5,37.4,30.09,North,5,0.0,1.0,73,0.00,,---,0.00,VWS V14.01,2014-02-02 07:56:00,